Terminal Aerodrome Forecast
Issued by NWS Sterling, VA

Current Version | Previous Version | Text Only | Print | Product List | Glossary Off
Versions: 1 2 3 4 5 6 7 8 9 10 11 12 13 14 15 16 17

785
FTUS41 KLWX 102328
TAFMRB
TAF
KMRB 102328Z 1100/1124 23004KT P6SM BKN090
     FM111000 25004KT P6SM SCT040
     FM111800 26005KT P6SM BKN150
     FM112000 19004KT P6SM BKN120=

USA.gov is the U.S. government's official web portal to all federal, state and local government web resources and services.